Time;durP1;ratioP1;P1;durP2;ratioP2;P2;SDS_P1;SDS_P2;PMS_P1;PMS_P2;Temp;Humidity;BMP_temperature;BMP_pressure;BME280_temperature;BME280_humidity;BME280_pressure;Samples;Min_cycle;Max_cycle;Signal;HPM_P1;HPM_P2
2022/01/10 00:04:29;;;;;;;76.70;36.70;;;;;;;-3.15;74.18;99211.59;207619;1315;140823;-66
2022/01/10 00:09:32;;;;;;;179.30;65.10;;;;;;;-3.17;74.48;99211.40;208250;1316;141348;-66
2022/01/10 00:14:36;;;;;;;120.40;53.10;;;;;;;-3.21;74.38;99221.06;207650;1316;143555;-66
2022/01/10 00:19:39;;;;;;;131.60;50.00;;;;;;;-3.25;74.52;99225.64;208131;1316;141574;-66
2022/01/10 00:24:43;;;;;;;172.20;60.20;;;;;;;-3.30;74.58;99226.69;207845;1317;143272;-66
2022/01/10 00:29:50;;;;;;;97.70;43.60;;;;;;;-3.37;74.58;99233.33;207367;1316;141775;-66
2022/01/10 00:34:55;;;;;;;86.90;35.20;;;;;;;-3.45;74.56;99243.21;207649;1316;141260;-66
2022/01/10 00:39:58;;;;;;;75.30;33.10;;;;;;;-3.48;74.57;99253.88;207322;1318;143493;-66
2022/01/10 00:45:13;;;;;;;77.80;37.70;;;;;;;-3.46;74.58;99266.37;207151;1316;140862;-66
2022/01/10 00:50:18;;;;;;;80.60;37.40;;;;;;;-3.41;74.89;99264.63;207444;1316;140661;-66
2022/01/10 00:55:23;;;;;;;74.60;35.10;;;;;;;-3.45;74.86;99275.16;208132;1318;143247;-66
2022/01/10 01:00:26;;;;;;;67.30;33.50;;;;;;;-3.47;74.88;99275.73;207083;1317;236250;-66
2022/01/10 01:05:32;;;;;;;73.00;35.00;;;;;;;-3.54;74.75;99276.55;207741;1314;140306;-66
2022/01/10 01:26:32;;;;;;;70.50;36.10;;;;;;;-3.48;74.78;99290.39;208706;1317;141646;-67
2022/01/10 01:31:43;;;;;;;74.30;33.60;;;;;;;-3.44;74.93;99296.05;209039;1317;142383;-67
2022/01/10 01:36:51;;;;;;;67.90;31.40;;;;;;;-3.40;74.93;99299.68;209548;1317;139726;-67
2022/01/10 01:42:03;;;;;;;71.90;34.40;;;;;;;-3.42;74.79;99308.20;207160;1318;141037;-66
2022/01/10 01:47:10;;;;;;;70.50;35.10;;;;;;;-3.49;74.64;99322.59;207137;1317;142838;-66
2022/01/10 01:52:13;;;;;;;53.20;25.00;;;;;;;-3.59;74.56;99325.04;207864;1318;141683;-66
2022/01/10 01:57:19;;;;;;;55.60;31.40;;;;;;;-3.72;74.49;99331.40;207492;1316;141279;-66
2022/01/10 02:02:22;;;;;;;58.50;30.80;;;;;;;-3.72;74.75;99333.64;208481;1316;143122;-66
2022/01/10 02:07:25;;;;;;;64.00;30.20;;;;;;;-3.66;74.88;99339.81;208516;1316;142657;-66
2022/01/10 02:12:27;;;;;;;65.50;34.10;;;;;;;-3.61;74.93;99347.42;208019;1317;140628;-66
2022/01/10 02:17:36;;;;;;;59.80;30.40;;;;;;;-3.60;74.80;99353.98;207681;1316;142238;-66
2022/01/10 02:22:42;;;;;;;60.70;29.90;;;;;;;-3.63;74.86;99363.44;207613;1316;140722;-67
2022/01/10 02:27:48;;;;;;;70.10;35.10;;;;;;;-3.66;75.24;99372.64;206973;1316;144076;-66
2022/01/10 02:32:56;;;;;;;71.60;35.90;;;;;;;-3.68;75.09;99376.70;206659;1316;142830;-65
2022/01/10 02:38:01;;;;;;;70.30;31.60;;;;;;;-3.67;75.15;99386.35;206835;1318;142152;-65
2022/01/10 02:43:10;;;;;;;64.60;33.10;;;;;;;-3.66;75.26;99383.73;208361;1318;143253;-66
2022/01/10 02:48:14;;;;;;;70.90;35.60;;;;;;;-3.67;75.31;99393.92;207001;1317;141779;-65
2022/01/10 02:53:17;;;;;;;66.20;35.10;;;;;;;-3.76;75.24;99401.62;208275;1318;140749;-65
2022/01/10 02:58:20;;;;;;;63.60;34.40;;;;;;;-3.88;75.17;99408.48;208165;1315;140630;-65
2022/01/10 03:03:33;;;;;;;64.30;31.80;;;;;;;-3.99;75.20;99408.55;207920;1315;140787;-65
2022/01/10 03:08:36;;;;;;;64.60;34.40;;;;;;;-4.14;75.16;99427.88;206982;1316;141947;-65
2022/01/10 03:13:40;;;;;;;57.90;30.70;;;;;;;-4.23;75.16;99427.14;207809;1316;142451;-64
2022/01/10 03:18:46;;;;;;;79.00;37.20;;;;;;;-4.27;75.09;99435.05;207786;1317;142122;-65
2022/01/10 03:23:59;;;;;;;71.50;34.00;;;;;;;-4.28;75.50;99444.20;207927;1316;139904;-65
2022/01/10 03:29:02;;;;;;;65.60;31.00;;;;;;;-4.36;75.53;99451.24;208408;1315;141663;-65
2022/01/10 03:34:11;;;;;;;57.70;29.00;;;;;;;-4.51;75.08;99463.39;208626;1317;141535;-66
2022/01/10 03:39:14;;;;;;;47.50;24.50;;;;;;;-4.66;75.25;99463.10;207488;1315;142042;-65
2022/01/10 03:44:18;;;;;;;67.00;34.60;;;;;;;-4.76;75.51;99474.80;209490;1316;141669;-66
2022/01/10 03:49:21;;;;;;;60.10;29.60;;;;;;;-4.74;75.67;99483.25;207955;1316;231812;-65
2022/01/10 03:54:28;;;;;;;66.70;34.10;;;;;;;-4.71;75.95;99495.41;207397;1318;141922;-65
2022/01/10 03:59:34;;;;;;;67.90;36.60;;;;;;;-4.67;76.12;99506.73;208136;1317;140621;-65
2022/01/10 04:04:39;;;;;;;66.30;34.20;;;;;;;-4.75;76.00;99524.71;208219;1316;141136;-65
2022/01/10 04:09:47;;;;;;;83.10;37.80;;;;;;;-4.81;76.23;99529.81;208417;1316;140561;-65
2022/01/10 04:14:51;;;;;;;65.10;29.40;;;;;;;-4.85;76.37;99534.17;206832;1318;152888;-65
2022/01/10 04:19:55;;;;;;;74.20;32.60;;;;;;;-4.95;76.05;99544.00;207090;1316;141263;-65
2022/01/10 04:25:01;;;;;;;73.00;33.60;;;;;;;-5.04;75.89;99556.61;207138;1315;141114;-65
2022/01/10 04:30:05;;;;;;;82.70;37.50;;;;;;;-5.12;75.94;99568.50;207531;1316;140820;-65
2022/01/10 04:35:10;;;;;;;74.30;35.90;;;;;;;-5.16;76.27;99581.39;207671;1317;141264;-65
2022/01/10 04:40:13;;;;;;;78.40;39.20;;;;;;;-5.20;76.38;99593.22;207422;1318;141862;-65
2022/01/10 04:45:19;;;;;;;63.10;29.90;;;;;;;-5.21;76.43;99603.86;207256;1316;142245;-65
2022/01/10 04:51:29;;;;;;;75.40;36.00;;;;;;;-5.30;76.34;99609.66;208194;1316;140561;-65
2022/01/10 04:56:02;;;;;;;78.00;34.40;;;;;;;-5.38;76.15;99620.77;206809;1317;140211;-65
2022/01/10 05:01:05;;;;;;;80.20;35.30;;;;;;;-5.39;76.57;99625.75;207549;1316;140499;-65
2022/01/10 05:06:09;;;;;;;82.20;37.70;;;;;;;-5.39;76.78;99638.59;207809;1316;140603;-65
2022/01/10 05:11:35;;;;;;;82.30;40.50;;;;;;;-5.39;77.01;99643.09;207033;1317;151300;-65
2022/01/10 05:16:55;;;;;;;74.70;39.20;;;;;;;-5.40;77.11;99654.24;207207;1316;140097;-63
2022/01/10 05:22:06;;;;;;;64.90;29.40;;;;;;;-5.42;77.18;99660.77;208009;1318;141012;-64
2022/01/10 05:27:10;;;;;;;82.40;34.90;;;;;;;-5.43;77.36;99665.91;207053;1316;140039;-63
2022/01/10 05:32:13;;;;;;;86.90;37.00;;;;;;;-5.37;77.31;99677.85;207047;1317;142936;-64
2022/01/10 05:37:16;;;;;;;92.00;39.30;;;;;;;-5.32;77.42;99684.02;208094;1316;140016;-64
2022/01/10 05:42:20;;;;;;;77.60;34.70;;;;;;;-5.38;77.21;99685.86;207921;1316;140539;-64
2022/01/10 05:47:40;;;;;;;72.50;38.50;;;;;;;-5.44;77.38;99695.27;208316;1317;139622;-65
2022/01/10 05:52:44;;;;;;;73.40;34.00;;;;;;;-5.46;77.54;99709.43;209296;1316;339011;-67
2022/01/10 05:57:49;;;;;;;70.70;33.80;;;;;;;-5.47;77.62;99717.17;208914;1320;139943;-66
2022/01/10 06:02:52;;;;;;;70.00;33.20;;;;;;;-5.50;77.44;99722.80;209353;1316;141175;-63
2022/01/10 06:07:55;;;;;;;67.60;32.60;;;;;;;-5.49;77.46;99726.65;208372;1321;142006;-63
2022/01/10 06:13:02;;;;;;;67.00;33.60;;;;;;;-5.45;77.19;99732.95;209328;1319;142491;-66
2022/01/10 06:18:08;;;;;;;73.70;34.90;;;;;;;-5.43;77.32;99745.73;207622;1316;142173;-66
2022/01/10 06:23:11;;;;;;;66.10;33.00;;;;;;;-5.48;77.38;99752.94;208493;1319;140494;-66
2022/01/10 06:28:15;;;;;;;68.20;34.00;;;;;;;-5.51;77.62;99772.77;207209;1316;140749;-65
2022/01/10 06:33:19;;;;;;;56.50;26.80;;;;;;;-5.51;77.86;99792.70;207752;1316;140760;-64
2022/01/10 06:38:23;;;;;;;76.00;33.40;;;;;;;-5.54;77.78;99806.65;207763;1316;140669;-64
2022/01/10 06:43:26;;;;;;;65.70;32.10;;;;;;;-5.52;77.70;99817.21;207276;1316;141836;-64
2022/01/10 06:48:35;;;;;;;72.60;37.40;;;;;;;-5.52;77.77;99828.39;207133;1316;140069;-64
2022/01/10 06:53:41;;;;;;;78.30;39.60;;;;;;;-5.52;77.99;99849.77;207392;1317;139691;-64
2022/01/10 06:58:44;;;;;;;109.10;50.20;;;;;;;-5.51;78.27;99864.31;207305;1316;206574;-68
2022/01/10 07:03:46;;;;;;;111.00;46.00;;;;;;;-5.49;78.48;99875.77;206842;1316;140413;-63
2022/01/10 07:09:10;;;;;;;70.80;31.40;;;;;;;-5.47;78.70;99883.35;207490;1316;140306;-68
2022/01/10 07:14:16;;;;;;;69.90;33.50;;;;;;;-5.37;78.92;99893.80;206958;1315;141636;-64
2022/01/10 07:19:34;;;;;;;71.00;34.40;;;;;;;-5.20;79.06;99908.95;208041;1316;144008;-65
2022/01/10 07:24:39;;;;;;;;;;;;;;;-5.05;79.32;99922.10;207526;1316;221514;-68
2022/01/10 07:29:43;;;;;;;63.50;28.80;;;;;;;-4.93;79.49;99938.63;207673;1316;128660;-68
2022/01/10 07:34:47;;;;;;;63.90;27.50;;;;;;;-4.88;79.59;99948.19;208196;1315;141044;-69
2022/01/10 07:39:51;;;;;;;67.10;27.30;;;;;;;-4.75;79.48;99960.91;207328;1316;140819;-67
2022/01/10 07:44:54;;;;;;;64.50;28.20;;;;;;;-4.67;79.54;99980.77;207164;1318;141508;-66
2022/01/10 07:49:56;;;;;;;51.20;23.70;;;;;;;-4.61;79.88;99988.89;207794;1316;145201;-67
2022/01/10 07:55:06;;;;;;;61.40;27.10;;;;;;;-4.52;79.79;100002.11;208250;1316;140671;-65
2022/01/10 08:00:10;;;;;;;65.00;24.60;;;;;;;-4.38;79.82;100003.77;208617;1316;141896;-65
2022/01/10 08:05:13;;;;;;;42.90;18.10;;;;;;;-4.28;79.75;100003.39;208779;1316;142444;-68
2022/01/10 08:10:18;;;;;;;62.70;24.90;;;;;;;-4.23;79.66;100009.64;207519;1320;142368;-64
2022/01/10 08:15:20;;;;;;;56.80;26.70;;;;;;;-4.16;79.62;100012.35;206826;1316;140196;-67
2022/01/10 08:20:27;;;;;;;72.10;32.60;;;;;;;-4.05;79.77;100027.18;207486;1316;141666;-66
2022/01/10 08:25:33;;;;;;;61.00;30.20;;;;;;;-3.92;79.99;100031.43;207572;1316;140788;-65
2022/01/10 08:30:39;;;;;;;66.20;26.00;;;;;;;-3.79;80.12;100037.74;207936;1316;142051;-65
2022/01/10 08:35:42;;;;;;;78.90;31.20;;;;;;;-3.66;79.72;100053.73;207193;1316;142217;-67
2022/01/10 08:40:45;;;;;;;57.40;26.40;;;;;;;-3.55;79.77;100068.06;207210;1316;140276;-66
2022/01/10 08:45:48;;;;;;;53.80;26.20;;;;;;;-3.50;79.89;100082.77;207443;1316;140618;-69
2022/01/10 08:50:52;;;;;;;55.30;22.50;;;;;;;-3.42;79.78;100089.48;207194;1316;141678;-69
2022/01/10 08:55:55;;;;;;;59.50;24.40;;;;;;;-3.35;79.72;100098.76;207258;1316;140704;-70
2022/01/10 09:00:57;;;;;;;54.60;20.70;;;;;;;-3.34;79.69;100111.52;206950;1317;140983;-67
2022/01/10 09:05:59;;;;;;;62.90;26.60;;;;;;;-3.33;79.50;100113.02;206875;1316;141150;-70
2022/01/10 09:11:06;;;;;;;57.40;24.70;;;;;;;-3.21;79.93;100118.92;207373;1316;141416;-66
2022/01/10 09:16:11;;;;;;;46.20;21.30;;;;;;;-2.99;80.03;100124.06;207070;1322;140761;-68
2022/01/10 09:21:15;;;;;;;52.60;23.00;;;;;;;-2.88;79.77;100134.34;208505;1316;140787;-69
2022/01/10 09:26:19;;;;;;;55.00;23.40;;;;;;;-2.83;79.82;100133.84;207189;1319;142733;-69
2022/01/10 09:31:28;;;;;;;56.60;26.80;;;;;;;-2.72;79.78;100134.25;207152;1317;141196;-70
2022/01/10 09:36:34;;;;;;;51.40;21.90;;;;;;;-2.62;79.61;100143.46;207658;1317;141020;-67
2022/01/10 09:41:36;;;;;;;58.70;22.60;;;;;;;-2.55;79.63;100146.91;207118;1317;141287;-67
2022/01/10 09:47:01;;;;;;;63.10;26.30;;;;;;;-2.49;79.41;100165.56;207919;1317;142261;-69
2022/01/10 09:52:05;;;;;;;50.00;24.10;;;;;;;-2.51;79.41;100170.08;207249;1317;142856;-70
2022/01/10 09:57:08;;;;;;;44.50;21.10;;;;;;;-2.52;79.28;100185.27;209515;1316;140842;-69
2022/01/10 10:02:11;;;;;;;48.20;22.60;;;;;;;-2.51;79.27;100196.21;209050;1318;142215;-67
2022/01/10 10:07:15;;;;;;;42.70;20.00;;;;;;;-2.51;79.41;100206.29;209340;1317;141157;-67
2022/01/10 10:12:28;;;;;;;41.30;19.90;;;;;;;-2.53;79.17;100217.77;208055;1317;163344;-67
2022/01/10 10:17:33;;;;;;;39.00;19.20;;;;;;;-2.50;79.24;100231.24;208370;1319;143795;-67
2022/01/10 10:22:50;;;;;;;41.90;17.70;;;;;;;-2.52;79.39;100242.00;209500;1316;140242;-68
2022/01/10 10:27:53;;;;;;;44.40;20.80;;;;;;;-2.52;79.33;100249.35;207431;1317;141058;-66
2022/01/10 10:33:18;;;;;;;51.60;23.00;;;;;;;-2.47;79.46;100253.22;208070;1316;140637;-67
2022/01/10 10:38:30;;;;;;;31.50;15.00;;;;;;;-2.41;79.63;100261.06;207396;1317;141445;-67
2022/01/10 10:43:36;;;;;;;42.30;21.80;;;;;;;-2.44;79.41;100271.95;207824;1316;141169;-66
2022/01/10 10:48:45;;;;;;;41.40;16.90;;;;;;;-2.42;79.57;100277.11;207028;1316;141642;-67
2022/01/10 10:53:50;;;;;;;42.00;19.70;;;;;;;-2.43;79.40;100281.05;207583;1316;141182;-66
2022/01/10 10:58:55;;;;;;;47.50;22.60;;;;;;;-2.45;79.65;100284.88;206999;1316;140386;-66
2022/01/10 11:04:03;;;;;;;43.10;19.30;;;;;;;-2.42;79.90;100291.37;207529;1316;140716;-65
2022/01/10 11:09:12;;;;;;;47.60;18.00;;;;;;;-2.39;79.73;100299.80;207804;1316;140185;-66
2022/01/10 11:14:17;;;;;;;44.20;22.70;;;;;;;-2.29;79.90;100303.65;207026;1315;142696;-65
2022/01/10 11:19:31;;;;;;;33.60;19.30;;;;;;;-2.19;80.03;100300.12;207988;1316;141388;-65
2022/01/10 11:25:04;;;;;;;39.70;17.30;;;;;;;-2.14;79.80;100314.98;207688;1316;140398;-66
2022/01/10 11:30:22;;;;;;;36.30;18.50;;;;;;;-2.15;79.81;100326.36;207123;1317;140865;-66
2022/01/10 11:35:37;;;;;;;46.80;21.80;;;;;;;-2.11;79.65;100339.92;207082;1316;141156;-65
2022/01/10 11:40:46;;;;;;;51.20;21.20;;;;;;;-2.07;79.92;100345.86;207705;1316;141914;-65
2022/01/10 11:45:50;;;;;;;50.90;22.60;;;;;;;-2.11;79.81;100350.05;208132;1317;159514;-65
2022/01/10 11:50:57;;;;;;;41.70;21.20;;;;;;;-2.15;79.58;100355.53;208640;1317;141784;-65
2022/01/10 11:56:23;;;;;;;31.00;16.40;;;;;;;-2.11;79.74;100356.84;207508;1316;142921;-64
2022/01/10 12:01:34;;;;;;;41.00;20.40;;;;;;;-2.07;79.82;100358.92;207898;1316;141684;-64
2022/01/10 12:06:38;;;;;;;43.50;20.80;;;;;;;-2.04;79.97;100366.27;207089;1318;141366;-64
2022/01/10 12:11:41;;;;;;;39.20;18.40;;;;;;;-1.96;80.13;100374.69;207067;1316;140517;-64
2022/01/10 12:16:44;;;;;;;43.80;21.70;;;;;;;-1.88;79.97;100382.28;209083;1315;142587;-64
2022/01/10 12:21:48;;;;;;;42.70;22.40;;;;;;;-1.77;79.93;100386.54;208470;1318;142474;-65
2022/01/10 12:26:52;;;;;;;43.80;21.00;;;;;;;-1.69;79.89;100396.55;209649;1316;140225;-68
2022/01/10 12:31:54;;;;;;;43.70;21.90;;;;;;;-1.60;79.83;100406.55;209126;1316;140336;-65
2022/01/10 12:36:58;;;;;;;42.40;22.90;;;;;;;-1.54;79.65;100420.35;207531;1319;142843;-65
2022/01/10 12:42:02;;;;;;;38.70;19.60;;;;;;;-1.51;79.55;100425.63;207526;1318;141326;-65
2022/01/10 12:47:06;;;;;;;45.80;23.40;;;;;;;-1.46;79.44;100437.67;207289;1318;251632;-65
2022/01/10 12:52:09;;;;;;;43.00;19.90;;;;;;;-1.39;79.58;100443.34;207611;1316;141120;-68
2022/01/10 12:57:12;;;;;;;36.00;19.80;;;;;;;-1.38;79.62;100457.88;207169;1316;141011;-69
2022/01/10 13:02:20;;;;;;;40.50;21.40;;;;;;;-1.39;79.52;100467.56;207404;1318;141710;-65
2022/01/10 13:07:45;;;;;;;34.30;18.50;;;;;;;-1.44;79.38;100475.98;207204;1317;140070;-64
2022/01/10 13:13:03;;;;;;;38.10;16.50;;;;;;;-1.49;79.61;100491.13;207060;1316;141410;-64
2022/01/10 13:18:14;;;;;;;35.90;17.20;;;;;;;-1.45;79.29;100496.71;207563;1316;141488;-64
2022/01/10 13:23:33;;;;;;;39.00;17.60;;;;;;;-1.46;79.33;100503.95;206888;1318;141442;-64
2022/01/10 13:29:04;;;;;;;37.40;17.80;;;;;;;-1.51;79.62;100516.73;206943;1317;139877;-64
2022/01/10 13:34:25;;;;;;;31.60;14.90;;;;;;;-1.53;79.67;100521.82;207587;1318;140435;-65
2022/01/10 13:39:34;;;;;;;42.50;18.40;;;;;;;-1.53;79.76;100531.61;207096;1318;141096;-65
2022/01/10 13:45:05;;;;;;;;;;;;;;;;;;;;;
2022/01/10 13:50:20;;;;;;;36.90;18.60;;;;;;;-1.54;79.68;100547.17;207564;1315;141248;-66
2022/01/10 13:55:23;;;;;;;35.30;17.10;;;;;;;-1.57;79.63;100552.49;207150;1316;652123;-65
2022/01/10 14:00:30;;;;;;;48.10;21.50;;;;;;;-1.60;79.48;100555.60;208443;1315;140141;-65
2022/01/10 14:05:36;;;;;;;42.60;21.70;;;;;;;-1.62;79.56;100568.52;207121;1318;140875;-64
2022/01/10 14:10:41;;;;;;;39.70;21.50;;;;;;;-1.62;79.64;100583.30;208217;1315;140701;-65
2022/01/10 14:15:43;;;;;;;46.50;24.70;;;;;;;-1.66;79.80;100592.67;208443;1317;140693;-64
2022/01/10 14:20:46;;;;;;;75.90;37.50;;;;;;;-1.65;79.86;100593.48;208795;1315;141655;-64
2022/01/10 14:25:49;;;;;;;54.70;25.10;;;;;;;-1.59;79.90;100603.93;208724;1318;141156;-65
2022/01/10 14:30:53;;;;;;;57.00;27.10;;;;;;;-1.51;79.67;100605.45;208777;1322;143006;-65
2022/01/10 14:36:00;;;;;;;53.20;26.40;;;;;;;-1.49;79.67;100618.50;209242;1316;141525;-65
2022/01/10 14:41:04;;;;;;;57.10;26.40;;;;;;;-1.50;79.72;100622.98;207803;1316;141043;-65
2022/01/10 14:46:08;;;;;;;64.40;26.50;;;;;;;-1.54;79.54;100636.83;207799;1316;140866;-67
2022/01/10 14:51:13;;;;;;;50.30;24.40;;;;;;;-1.57;79.48;100641.71;207893;1317;142117;-67
2022/01/10 14:56:16;;;;;;;56.10;27.60;;;;;;;-1.54;79.64;100657.15;207909;1318;141186;-66
2022/01/10 15:01:20;;;;;;;40.60;20.50;;;;;;;-1.53;79.90;100670.17;207690;1317;142165;-65
2022/01/10 15:06:23;;;;;;;45.50;23.30;;;;;;;-1.55;79.67;100684.11;207767;1317;143608;-66
2022/01/10 15:11:27;;;;;;;54.00;28.10;;;;;;;-1.53;79.71;100686.41;207170;1316;142975;-64
2022/01/10 15:16:30;;;;;;;46.00;24.70;;;;;;;-1.57;79.62;100703.83;207148;1316;236616;-64
2022/01/10 15:21:39;;;;;;;32.50;15.70;;;;;;;-1.66;79.57;100710.86;208250;1315;140657;-65
2022/01/10 15:26:44;;;;;;;44.50;21.20;;;;;;;-1.70;79.43;100719.79;207618;1316;142477;-65
2022/01/10 15:31:49;;;;;;;43.90;20.90;;;;;;;-1.73;79.45;100731.50;207420;1316;142756;-66
2022/01/10 15:36:53;;;;;;;31.60;17.80;;;;;;;-1.71;79.48;100745.10;207840;1318;141150;-66
2022/01/10 15:41:59;;;;;;;31.60;17.70;;;;;;;-1.78;79.32;100753.67;207088;1318;142134;-66
2022/01/10 15:47:02;;;;;;;33.20;16.50;;;;;;;-1.83;79.15;100766.51;207010;1318;141496;-65
2022/01/10 15:52:17;;;;;;;37.80;18.10;;;;;;;-1.87;79.13;100780.46;208103;1317;139886;-66
2022/01/10 15:57:21;;;;;;;33.50;14.70;;;;;;;-1.94;78.93;100789.75;207720;1318;139967;-66
2022/01/10 16:02:25;;;;;;;33.60;17.40;;;;;;;-1.99;78.75;100802.56;208303;1316;141411;-66
2022/01/10 16:07:28;;;;;;;26.10;13.00;;;;;;;-2.08;78.71;100806.18;207963;1318;141189;-66
2022/01/10 16:12:31;;;;;;;41.60;19.30;;;;;;;-2.21;78.71;100817.92;207540;1317;141088;-66
2022/01/10 16:17:35;;;;;;;30.50;15.70;;;;;;;-2.29;78.58;100832.91;207278;1318;140777;-68
2022/01/10 16:22:41;;;;;;;43.70;22.40;;;;;;;-2.38;78.64;100841.98;208825;1316;141071;-67
2022/01/10 16:27:54;;;;;;;;;;;;;;;;;;;;;
2022/01/10 16:33:04;;;;;;;39.80;18.60;;;;;;;-2.57;78.70;100855.73;209167;1318;140476;-69
2022/01/10 16:38:12;;;;;;;39.40;18.50;;;;;;;-2.64;78.69;100869.36;208621;1318;142729;-70
2022/01/10 16:43:22;;;;;;;34.50;16.10;;;;;;;-2.70;78.79;100873.28;208228;1318;141406;-69
2022/01/10 16:48:34;;;;;;;29.20;16.00;;;;;;;-2.75;78.79;100883.27;208364;1316;143755;-70
2022/01/10 16:53:40;;;;;;;32.70;16.70;;;;;;;-2.79;78.99;100886.56;209477;1318;141383;-70
2022/01/10 16:58:46;;;;;;;34.60;16.10;;;;;;;-2.79;78.98;100895.42;207069;1317;143323;-66
2022/01/10 17:03:53;;;;;;;30.20;14.10;;;;;;;-2.86;79.03;100900.83;206874;1315;140443;-67
2022/01/10 17:08:57;;;;;;;35.40;16.20;;;;;;;-2.97;79.01;100911.64;207159;1315;139598;-67
2022/01/10 17:14:04;;;;;;;36.70;19.10;;;;;;;-3.06;79.04;100919.45;207820;1317;142161;-65
2022/01/10 17:19:11;;;;;;;41.80;17.80;;;;;;;-3.11;79.16;100920.66;208038;1316;142731;-65
2022/01/10 17:24:28;;;;;;;50.00;21.30;;;;;;;-3.17;79.07;100924.96;206886;1316;140469;-72
2022/01/10 17:29:40;;;;;;;43.30;17.90;;;;;;;-3.25;79.17;100929.98;206649;1318;141138;-68
2022/01/10 17:34:45;;;;;;;34.30;18.80;;;;;;;-3.34;79.38;100934.46;206883;1316;140837;-66
2022/01/10 17:40:08;;;;;;;;;;;;;;;;;;;;;
2022/01/10 17:45:23;;;;;;;41.90;18.30;;;;;;;-3.46;79.36;100946.84;207583;1316;141446;-66
2022/01/10 17:50:49;;;;;;;45.60;19.60;;;;;;;-3.47;79.37;100955.94;208008;1315;140481;-66
2022/01/10 17:56:30;;;;;;;47.60;20.20;;;;;;;-3.50;79.39;100969.23;207978;1312;141592;-66
2022/01/10 18:01:38;;;;;;;34.90;17.50;;;;;;;-3.57;79.34;100973.70;207033;1315;142675;-63
2022/01/10 18:06:44;;;;;;;49.00;23.00;;;;;;;-3.70;79.35;100983.77;207048;1316;143714;-66
2022/01/10 18:11:47;;;;;;;52.30;21.70;;;;;;;-3.77;79.32;100986.86;206785;1318;142734;-65
2022/01/10 18:16:59;;;;;;;;;;;;;;;-3.84;79.43;101000.70;208365;1317;140849;-65
2022/01/10 18:22:04;;;;;;;49.40;21.60;;;;;;;-3.91;79.86;101005.05;209186;1317;128140;-65
2022/01/10 18:27:33;;;;;;;47.40;23.80;;;;;;;-3.95;79.71;101013.36;208540;1318;141570;-65
2022/01/10 18:32:38;;;;;;;52.90;25.20;;;;;;;-4.00;79.55;101015.45;208292;1315;140769;-65
2022/01/10 18:37:57;;;;;;;;;;;;;;;;;;;;;
2022/01/10 18:43:04;;;;;;;;;;;;;;;-4.16;78.85;101029.44;209255;1315;141013;-66
2022/01/10 18:48:10;;;;;;;56.80;25.60;;;;;;;-4.30;78.79;101034.79;208820;1318;147990;-65
2022/01/10 18:53:13;;;;;;;52.60;24.70;;;;;;;-4.40;78.81;101044.02;208605;1315;160138;-66
2022/01/10 18:58:17;;;;;;;54.70;24.30;;;;;;;-4.50;78.80;101047.11;209096;1316;142577;-65
2022/01/10 19:03:20;;;;;;;45.80;23.00;;;;;;;-4.59;78.91;101055.02;207864;1317;140203;-65
2022/01/10 19:08:23;;;;;;;42.20;19.00;;;;;;;-4.67;78.83;101063.42;208834;1316;141383;-66
2022/01/10 19:13:30;;;;;;;52.50;25.60;;;;;;;-4.77;78.76;101068.20;207240;1316;140083;-65
2022/01/10 19:18:38;;;;;;;54.20;28.40;;;;;;;-4.80;78.59;101071.56;207830;1316;143127;-66
2022/01/10 19:23:41;;;;;;;60.20;30.90;;;;;;;-4.84;78.72;101079.64;208629;1316;140616;-65
2022/01/10 19:28:46;;;;;;;51.60;27.40;;;;;;;-4.91;78.73;101087.89;207102;1316;140101;-65
2022/01/10 19:34:02;;;;;;;54.00;25.70;;;;;;;-5.01;78.68;101093.30;208463;1315;141060;-66
2022/01/10 19:39:06;;;;;;;58.80;27.20;;;;;;;-5.13;78.94;101096.98;207363;1316;139788;-65
2022/01/10 19:44:16;;;;;;;54.50;27.70;;;;;;;-5.18;79.13;101108.23;207617;1316;139991;-65
2022/01/10 19:49:30;;;;;;;53.40;22.70;;;;;;;-5.24;79.11;101118.22;207402;1316;142690;-65
2022/01/10 19:54:34;;;;;;;58.30;28.40;;;;;;;-5.33;79.00;101121.72;208208;1313;140841;-65
2022/01/10 19:59:44;;;;;;;69.00;32.60;;;;;;;-5.33;78.80;101128.85;207675;1316;140864;-65
2022/01/10 20:04:50;;;;;;;71.50;34.20;;;;;;;-5.33;79.05;101135.76;207131;1316;142425;-64
2022/01/10 20:09:59;;;;;;;61.20;29.00;;;;;;;-5.36;78.98;101140.84;207403;1315;140761;-66
2022/01/10 20:15:03;;;;;;;63.00;30.20;;;;;;;-5.44;79.06;101148.55;207478;1318;140102;-65
2022/01/10 20:20:08;;;;;;;65.70;32.70;;;;;;;-5.47;79.22;101150.98;207660;1317;141537;-65
2022/01/10 20:25:11;;;;;;;67.60;30.30;;;;;;;-5.56;78.95;101151.63;207621;1316;144413;-65
2022/01/10 20:30:15;;;;;;;63.90;29.40;;;;;;;-5.67;78.89;101157.67;208010;1316;140973;-65
2022/01/10 20:35:19;;;;;;;68.50;35.70;;;;;;;-5.66;78.76;101163.66;207067;1315;143221;-65
2022/01/10 20:40:24;;;;;;;65.20;32.90;;;;;;;-5.69;78.87;101176.14;209196;1318;141425;-66
2022/01/10 20:45:40;;;;;;;70.90;33.70;;;;;;;-5.68;79.40;101180.92;208882;1318;141339;-66
2022/01/10 20:50:50;;;;;;;72.20;32.50;;;;;;;-5.64;79.40;101190.95;209064;1317;141159;-66
2022/01/10 20:55:52;;;;;;;71.50;35.20;;;;;;;-5.65;79.41;101195.80;208430;1318;163095;-65
2022/01/10 21:00:55;;;;;;;71.00;32.50;;;;;;;-5.71;79.12;101203.65;209511;1316;141537;-65
2022/01/10 21:05:58;;;;;;;71.70;32.10;;;;;;;-5.80;79.02;101213.52;207292;1318;141028;-65
2022/01/10 21:11:04;;;;;;;68.40;29.00;;;;;;;-5.83;78.93;101221.52;207292;1317;140817;-64
2022/01/10 21:16:10;;;;;;;69.80;33.70;;;;;;;-5.81;79.05;101227.47;207594;1318;140565;-65
2022/01/10 21:21:16;;;;;;;67.60;35.00;;;;;;;-5.84;79.04;101231.94;207016;1317;139993;-65
2022/01/10 21:26:20;;;;;;;82.80;37.80;;;;;;;-5.90;79.14;101235.84;207235;1316;140984;-64
2022/01/10 21:31:25;;;;;;;85.10;41.50;;;;;;;-5.93;79.36;101241.91;207457;1316;141023;-65
2022/01/10 21:36:34;;;;;;;68.10;31.80;;;;;;;-5.98;79.50;101251.74;206585;1318;140682;-65
2022/01/10 21:41:38;;;;;;;72.70;32.10;;;;;;;-6.08;79.29;101259.59;208023;1318;142205;-65
2022/01/10 21:46:42;;;;;;;70.00;29.50;;;;;;;-6.16;79.36;101269.09;206874;1317;140834;-64
2022/01/10 21:51:48;;;;;;;69.20;32.50;;;;;;;-6.19;79.21;101270.80;206332;1316;745500;-65
2022/01/10 21:56:51;;;;;;;71.20;35.80;;;;;;;-6.26;78.84;101280.36;207064;1317;141273;-65
2022/01/10 22:02:11;;;;;;;66.80;37.00;;;;;;;-6.42;78.71;101292.02;207164;1316;141745;-65
2022/01/10 22:07:27;;;;;;;64.70;30.60;;;;;;;-6.49;78.99;101301.42;208123;1316;141110;-65
2022/01/10 22:12:34;;;;;;;70.20;34.20;;;;;;;-6.53;79.20;101302.16;207307;1316;141188;-65
2022/01/10 22:17:39;;;;;;;63.60;30.40;;;;;;;-6.57;79.23;101308.09;206825;1316;140228;-64
2022/01/10 22:22:44;;;;;;;70.80;33.00;;;;;;;-6.62;79.18;101321.70;207516;1317;142272;-65
2022/01/10 22:27:48;;;;;;;72.10;34.70;;;;;;;-6.66;79.19;101333.86;207422;1318;140988;-64
2022/01/10 22:32:52;;;;;;;68.50;33.70;;;;;;;-6.67;79.15;101333.75;208188;1316;141308;-65
2022/01/10 22:37:57;;;;;;;68.80;31.40;;;;;;;-6.69;78.66;101337.30;207449;1316;153024;-65
2022/01/10 22:43:04;;;;;;;61.20;29.70;;;;;;;-6.68;78.62;101332.91;208488;1318;140702;-65
2022/01/10 22:48:07;;;;;;;;;;;;;;;-6.67;78.59;101333.07;209019;1316;141782;-65
2022/01/10 22:53:12;;;;;;;70.20;36.20;;;;;;;-6.64;78.61;101334.29;208599;1316;129215;-65
2022/01/10 22:58:19;;;;;;;70.60;36.10;;;;;;;-6.60;78.74;101329.21;208179;1317;140704;-65
2022/01/10 23:03:28;;;;;;;81.20;38.30;;;;;;;-6.62;78.63;101329.98;208229;1316;141150;-65
2022/01/10 23:08:32;;;;;;;71.10;34.90;;;;;;;-6.63;78.87;101339.20;208941;1318;140491;-65
2022/01/10 23:13:36;;;;;;;68.70;30.40;;;;;;;-6.65;78.92;101337.80;207595;1315;141203;-64
2022/01/10 23:18:39;;;;;;;75.80;29.70;;;;;;;-6.69;78.85;101343.05;208112;1316;141473;-64